Mallow, Ireland
Current Conditions -  °F | °C
As of 12:00 AM on Saturday 20 Dec 2014 (Local Time) from EICK Reporting Station
Few Clouds Few Clouds  
Wind Chill: 34°   Ceiling: Unl
Heat Index: 39°   Visibility: 6mi
Dew Point: 37°   Wind: 8mph
Humidity: 93%   Direction: 240°WSW
Pressure: 30.3"   Gusts: NA
Location:  52.14°N, 8.66°W
Report Text: EICK 200000Z 24007KT 9999 FEW027 04/03 Q1026 NOSIG
Loading
Personal Weather Stations






























Interactive Weather Map New forecast layout! Learn more

10-Day Weather Forecast

Advertisements
Track Severe Weather on mobile